Time;durP1;ratioP1;P1;durP2;ratioP2;P2;SDS_P1;SDS_P2;PMS_P1;PMS_P2;Temp;Humidity;BMP_temperature;BMP_pressure;BME280_temperature;BME280_humidity;BME280_pressure;Samples;Min_cycle;Max_cycle;Signal;HPM_P1;HPM_P2
2023/04/30 00:01:46;;;;;;;61.95;37.67;;;;;;;19.83;100.00;94280.97;4999837;28;20034;-88
2023/04/30 00:04:12;;;;;;;68.10;38.30;;;;;;;19.82;100.00;94280.22;4983772;28;20029;-88
2023/04/30 00:06:37;;;;;;;65.35;35.42;;;;;;;19.77;100.00;94272.44;4999900;28;20026;-88
2023/04/30 00:09:02;;;;;;;60.83;33.75;;;;;;;19.66;100.00;94274.72;5000660;28;20041;-89
2023/04/30 00:11:28;;;;;;;60.05;33.63;;;;;;;19.27;100.00;94274.13;5000736;28;20486;-88
2023/04/30 00:13:55;;;;;;;67.32;35.90;;;;;;;18.93;100.00;94271.34;4983211;28;20058;-88
2023/04/30 00:16:21;;;;;;;61.13;34.13;;;;;;;19.17;100.00;94272.63;5000663;28;20022;-89
2023/04/30 00:18:46;;;;;;;55.13;31.95;;;;;;;19.23;100.00;94270.56;5000346;28;20034;-88
2023/04/30 00:21:12;;;;;;;56.90;33.17;;;;;;;19.28;100.00;94273.00;5000607;28;20026;-88
2023/04/30 00:23:37;;;;;;;59.22;31.88;;;;;;;19.29;100.00;94269.25;4999362;28;20426;-88
2023/04/30 00:26:03;;;;;;;61.67;33.40;;;;;;;18.92;100.00;94264.50;4983290;28;20125;-88
2023/04/30 00:28:28;;;;;;;66.07;34.70;;;;;;;18.51;100.00;94270.22;4999389;28;20486;-88
2023/04/30 00:30:53;;;;;;;62.83;34.58;;;;;;;18.29;100.00;94265.16;4983148;28;20483;-87
2023/04/30 00:33:19;;;;;;;79.05;37.55;;;;;;;18.20;100.00;94265.97;4999380;28;20022;-88
2023/04/30 00:35:46;;;;;;;78.43;41.60;;;;;;;18.27;100.00;94260.16;4983172;28;20030;-88
2023/04/30 00:38:11;;;;;;;82.40;42.17;;;;;;;18.14;100.00;94255.84;4999107;28;20026;-88
2023/04/30 00:40:37;;;;;;;82.28;42.13;;;;;;;18.21;100.00;94256.13;5000130;28;20432;-88
2023/04/30 00:43:03;;;;;;;72.90;39.85;;;;;;;18.33;100.00;94255.47;4982488;28;20038;-88
2023/04/30 00:45:29;;;;;;;64.90;36.80;;;;;;;18.54;100.00;94257.41;4998900;28;20136;-88
2023/04/30 00:47:55;;;;;;;70.90;35.05;;;;;;;18.58;100.00;94247.69;4998851;28;20105;-88
2023/04/30 00:50:21;;;;;;;62.97;33.25;;;;;;;18.78;100.00;94235.56;4998875;28;20041;-88
2023/04/30 00:52:47;;;;;;;68.43;36.78;;;;;;;18.53;100.00;94245.25;4998911;28;20030;-88
2023/04/30 00:55:12;;;;;;;70.20;37.50;;;;;;;18.37;100.00;94237.84;4998870;28;20379;-88
2023/04/30 00:57:39;;;;;;;65.55;36.33;;;;;;;18.68;100.00;94242.03;4998790;28;20424;-88
2023/04/30 01:00:08;;;;;;;62.88;36.10;;;;;;;18.68;100.00;94236.72;4998299;28;20034;-89
2023/04/30 01:02:34;;;;;;;68.00;35.97;;;;;;;18.46;100.00;94246.50;4997687;28;20026;-88
2023/04/30 01:05:01;;;;;;;57.05;31.80;;;;;;;18.65;100.00;94245.34;4982642;28;20425;-87
2023/04/30 01:07:27;;;;;;;58.85;34.30;;;;;;;18.65;100.00;94242.69;4982251;28;20030;-89
2023/04/30 01:09:53;;;;;;;61.13;33.85;;;;;;;18.68;100.00;94246.53;4998486;28;20026;-88
2023/04/30 01:12:31;;;;;;;64.63;33.42;;;;;;;18.60;100.00;94242.84;4982538;28;20053;-88
2023/04/30 01:15:25;;;;;;;66.10;35.63;;;;;;;18.79;100.00;94243.22;4998517;28;20121;-88
2023/04/30 01:18:03;;;;;;;65.07;35.63;;;;;;;18.46;100.00;94243.84;4999049;28;20463;-88
2023/04/30 01:20:29;;;;;;;74.20;37.30;;;;;;;18.26;100.00;94244.59;4982346;28;20088;-88
2023/04/30 01:23:10;;;;;;;69.15;38.20;;;;;;;18.20;100.00;94244.75;4998351;28;20030;-88
2023/04/30 01:25:39;;;;;;;67.97;35.05;;;;;;;18.27;100.00;94257.50;5000001;28;20061;-87
2023/04/30 01:28:05;;;;;;;63.92;33.38;;;;;;;18.35;100.00;94259.34;4998978;28;20038;-88
2023/04/30 01:30:32;;;;;;;64.63;34.80;;;;;;;18.74;100.00;94266.50;4998160;28;20153;-89
2023/04/30 01:32:57;;;;;;;61.28;33.65;;;;;;;18.79;100.00;94264.44;4998162;28;20034;-87
2023/04/30 01:36:00;;;;;;;65.13;34.38;;;;;;;19.18;100.00;94264.34;4998119;28;20056;-88
2023/04/30 01:39:03;;;;;;;62.15;30.63;;;;;;;19.36;100.00;94264.97;4981938;28;20130;-88
2023/04/30 01:41:40;;;;;;;60.40;32.88;;;;;;;19.33;100.00;94264.88;4997846;28;20339;-88
2023/04/30 01:44:08;;;;;;;56.50;32.30;;;;;;;19.07;100.00;94258.63;4981993;28;20026;-87
2023/04/30 01:46:34;;;;;;;61.22;31.52;;;;;;;18.89;100.00;94263.28;4999949;28;20029;-88
2023/04/30 01:49:18;;;;;;;58.15;32.15;;;;;;;18.82;100.00;94256.94;5004292;28;20018;-89
2023/04/30 01:51:46;;;;;;;54.00;30.55;;;;;;;18.80;100.00;94246.63;5008029;28;20041;-88
2023/04/30 01:54:55;;;;;;;55.58;31.27;;;;;;;19.00;100.00;94247.78;4990350;28;20034;-87
2023/04/30 01:57:42;;;;;;;47.15;29.75;;;;;;;19.01;100.00;94249.31;4998609;28;20034;-88
2023/04/30 02:00:11;;;;;;;54.15;30.98;;;;;;;19.01;100.00;94248.53;5000655;28;20328;-87
2023/04/30 02:02:37;;;;;;;61.42;33.55;;;;;;;18.74;100.00;94250.59;5017170;28;20041;-89
2023/04/30 02:05:02;;;;;;;57.10;31.42;;;;;;;18.67;100.00;94253.75;5000933;28;20030;-88
2023/04/30 02:07:45;;;;;;;51.97;30.58;;;;;;;19.16;100.00;94250.63;5017146;28;20041;-88
2023/04/30 02:10:11;;;;;;;52.20;30.13;;;;;;;19.00;100.00;94245.13;5016602;28;20030;-88
2023/04/30 02:12:37;;;;;;;51.33;30.17;;;;;;;18.96;100.00;94246.06;5015187;28;20036;-88
2023/04/30 02:15:04;;;;;;;49.05;28.90;;;;;;;19.08;100.00;94251.47;4997273;28;20034;-88
2023/04/30 02:17:30;;;;;;;48.45;27.10;;;;;;;19.03;100.00;94244.47;4981035;28;20038;-88
2023/04/30 02:19:56;;;;;;;46.55;27.83;;;;;;;19.00;100.00;94242.47;4997019;28;20125;-88
2023/04/30 02:22:21;;;;;;;52.58;29.10;;;;;;;18.87;100.00;94246.13;4997217;28;20128;-88
2023/04/30 02:24:47;;;;;;;40.50;24.90;;;;;;;18.78;100.00;94233.66;4997074;28;20056;-88
2023/04/30 02:27:12;;;;;;;45.13;27.13;;;;;;;18.82;100.00;94233.03;4980848;28;20026;-88
2023/04/30 02:29:37;;;;;;;55.45;29.90;;;;;;;18.59;100.00;94231.47;4996919;28;20408;-88
2023/04/30 02:32:03;;;;;;;46.03;28.40;;;;;;;18.78;100.00;94230.25;4980992;28;20029;-88
2023/04/30 02:34:28;;;;;;;49.03;28.30;;;;;;;18.59;100.00;94238.63;4980976;28;20026;-88
2023/04/30 02:36:54;;;;;;;54.80;30.70;;;;;;;18.48;100.00;94248.84;4996911;28;20088;-88
2023/04/30 02:39:19;;;;;;;50.08;30.35;;;;;;;18.69;100.00;94240.94;4996666;28;20194;-88
2023/04/30 02:41:45;;;;;;;56.78;32.10;;;;;;;18.62;100.00;94238.00;4980829;28;20189;-88
2023/04/30 02:44:10;;;;;;;53.20;30.45;;;;;;;18.96;100.00;94244.19;4980802;28;20037;-89
2023/04/30 02:46:36;;;;;;;50.83;29.17;;;;;;;19.11;100.00;94242.84;4996832;28;20038;-88
2023/04/30 02:49:01;;;;;;;54.78;31.77;;;;;;;18.82;100.00;94243.66;4996668;28;20029;-88
2023/04/30 02:51:27;;;;;;;58.55;33.00;;;;;;;18.70;100.00;94239.81;4997789;28;20030;-88
2023/04/30 02:53:52;;;;;;;62.20;31.45;;;;;;;19.07;100.00;94252.56;4996678;28;20084;-89
2023/04/30 02:56:18;;;;;;;60.55;33.67;;;;;;;18.57;100.00;94257.53;4996622;28;20432;-88
2023/04/30 02:58:43;;;;;;;56.13;31.77;;;;;;;19.06;100.00;94251.00;4997574;28;20126;-87
2023/04/30 03:01:09;;;;;;;65.40;33.17;;;;;;;19.05;100.00;94249.47;4997738;28;20432;-88
2023/04/30 03:03:34;;;;;;;61.00;32.40;;;;;;;19.05;100.00;94246.81;4997619;28;20044;-88
2023/04/30 03:06:00;;;;;;;66.82;34.47;;;;;;;19.10;100.00;94253.81;4996514;28;20434;-88
2023/04/30 03:08:25;;;;;;;56.80;31.00;;;;;;;19.36;100.00;94259.66;4996401;28;20038;-88
2023/04/30 03:10:51;;;;;;;67.45;34.92;;;;;;;18.98;100.00;94246.50;4996515;28;20485;-88
2023/04/30 03:13:17;;;;;;;60.20;35.35;;;;;;;18.44;100.00;94256.66;4996632;28;20037;-88
2023/04/30 03:15:42;;;;;;;67.78;37.38;;;;;;;18.53;100.00;94251.31;4997594;28;20058;-87
2023/04/30 03:18:09;;;;;;;60.85;35.15;;;;;;;18.72;100.00;94248.25;4995820;28;20038;-88
2023/04/30 03:20:37;;;;;;;70.45;35.05;;;;;;;18.58;100.00;94251.13;4996359;28;20088;-88
2023/04/30 03:23:03;;;;;;;56.22;32.75;;;;;;;18.75;100.00;94242.28;4997507;28;20450;-88
2023/04/30 03:25:28;;;;;;;58.60;32.40;;;;;;;18.90;100.00;94242.81;4995741;28;20034;-89
2023/04/30 03:27:53;;;;;;;58.13;32.25;;;;;;;18.73;100.00;94241.06;4995888;28;20112;-88
2023/04/30 03:30:19;;;;;;;51.58;30.55;;;;;;;18.83;100.00;94238.00;4980293;28;20344;-88
2023/04/30 03:32:44;;;;;;;61.28;32.10;;;;;;;18.59;100.00;94246.59;4980316;28;20035;-88
2023/04/30 03:35:10;;;;;;;50.90;30.35;;;;;;;18.75;100.00;94242.28;4996203;28;20034;-88
2023/04/30 03:37:36;;;;;;;45.35;26.40;;;;;;;18.91;100.00;94239.84;4980157;28;20030;-88
2023/04/30 03:40:03;;;;;;;41.80;24.95;;;;;;;18.99;100.00;94240.09;4980004;28;20077;-88
2023/04/30 03:42:29;;;;;;;44.88;24.60;;;;;;;19.03;100.00;94241.03;4996156;28;20034;-87
2023/04/30 03:44:54;;;;;;;43.15;26.10;;;;;;;19.03;100.00;94238.38;5008681;28;20041;-89
2023/04/30 03:47:38;;;;;;;40.67;22.98;;;;;;;19.10;100.00;94240.53;5010744;28;20502;-87
2023/04/30 03:50:04;;;;;;;43.40;25.35;;;;;;;18.66;100.00;94246.88;5015605;28;20335;-88
2023/04/30 03:52:30;;;;;;;37.25;23.55;;;;;;;18.85;100.00;94237.69;5003151;28;20038;-87
2023/04/30 03:54:56;;;;;;;39.15;22.08;;;;;;;18.62;100.00;94240.63;5001375;28;20447;-88
2023/04/30 03:57:21;;;;;;;35.92;22.08;;;;;;;18.89;100.00;94230.63;4996259;28;20026;-88
2023/04/30 03:59:47;;;;;;;38.70;21.08;;;;;;;19.02;100.00;94231.53;4995881;28;20034;-87
2023/04/30 04:02:12;;;;;;;32.58;19.42;;;;;;;19.01;100.00;94232.59;4979835;28;20027;-88
2023/04/30 04:04:38;;;;;;;33.00;18.77;;;;;;;18.89;100.00;94230.63;4996002;28;20120;-88
2023/04/30 04:07:03;;;;;;;31.25;18.92;;;;;;;18.99;100.00;94243.56;4995602;28;20054;-88
2023/04/30 04:09:29;;;;;;;31.90;19.30;;;;;;;19.02;100.00;94240.25;4996995;28;20336;-88
2023/04/30 04:11:55;;;;;;;27.42;18.10;;;;;;;19.13;100.00;94237.97;4996141;28;20436;-89
2023/04/30 04:14:20;;;;;;;28.05;17.48;;;;;;;19.09;100.00;94241.63;4995819;28;20026;-88
2023/04/30 04:16:46;;;;;;;34.35;17.35;;;;;;;19.03;100.00;94241.81;4996060;28;20041;-88
2023/04/30 04:19:12;;;;;;;29.08;17.35;;;;;;;18.89;100.00;94244.69;4978939;28;20045;-88
2023/04/30 04:21:37;;;;;;;31.25;15.68;;;;;;;18.58;100.00;94247.69;4979878;28;20032;-88
2023/04/30 04:24:07;;;;;;;32.10;19.10;;;;;;;18.23;100.00;94253.94;4979786;28;20030;-88
2023/04/30 04:26:33;;;;;;;33.25;16.45;;;;;;;18.64;100.00;94254.38;4995848;28;20033;-89
2023/04/30 04:28:59;;;;;;;31.65;17.65;;;;;;;18.70;100.00;94262.91;4995683;28;20387;-88
2023/04/30 04:31:25;;;;;;;30.02;18.15;;;;;;;18.74;100.00;94261.97;4995513;28;20031;-88
2023/04/30 04:33:57;;;;;;;30.38;17.73;;;;;;;18.83;100.00;94261.91;4996912;28;20026;-88
2023/04/30 04:36:23;;;;;;;33.80;17.42;;;;;;;18.65;100.00;94261.25;4980704;28;20061;-88
2023/04/30 04:38:48;;;;;;;35.80;20.70;;;;;;;18.06;100.00;94262.72;4998899;28;20068;-88
2023/04/30 04:41:13;;;;;;;33.60;18.23;;;;;;;18.17;100.00;94258.66;5000325;28;20035;-88
2023/04/30 04:43:39;;;;;;;27.85;16.98;;;;;;;18.35;100.00;94258.56;4999086;28;20034;-88
2023/04/30 04:46:06;;;;;;;39.58;19.20;;;;;;;17.90;100.00;94259.81;4982792;28;20049;-88
2023/04/30 04:48:31;;;;;;;28.95;17.88;;;;;;;18.04;100.00;94257.75;4999176;28;20113;-88
2023/04/30 04:50:57;;;;;;;28.02;16.95;;;;;;;18.29;100.00;94263.28;4982855;28;20121;-87
2023/04/30 04:53:23;;;;;;;29.88;17.52;;;;;;;18.08;100.00;94265.88;4998905;28;20026;-88
2023/04/30 04:55:48;;;;;;;27.95;17.85;;;;;;;18.20;100.00;94271.25;4982935;28;20037;-87
2023/04/30 04:58:13;;;;;;;31.95;18.38;;;;;;;18.06;100.00;94282.06;4998598;28;20034;-88
2023/04/30 05:00:39;;;;;;;30.65;17.83;;;;;;;18.23;100.00;94286.56;4982669;28;20074;-88
2023/04/30 05:03:04;;;;;;;28.23;17.42;;;;;;;18.52;100.00;94281.59;4998758;28;20038;-88
2023/04/30 05:05:30;;;;;;;28.75;16.83;;;;;;;18.77;100.00;94287.09;4998683;28;20034;-87
2023/04/30 05:07:55;;;;;;;28.08;15.88;;;;;;;18.49;100.00;94284.88;4998517;28;20117;-87
2023/04/30 05:10:20;;;;;;;32.13;19.08;;;;;;;18.20;100.00;94284.50;4982597;28;20035;-87
2023/04/30 05:12:46;;;;;;;31.83;18.30;;;;;;;18.28;100.00;94282.16;4982571;28;20432;-87
2023/04/30 05:15:11;;;;;;;33.20;17.77;;;;;;;18.40;100.00;94284.13;4982511;28;20044;-87
2023/04/30 05:17:37;;;;;;;31.02;17.85;;;;;;;18.19;100.00;94293.56;4998502;28;20092;-87
2023/04/30 05:20:02;;;;;;;32.03;18.42;;;;;;;18.38;100.00;94281.81;4982168;28;20039;-88
2023/04/30 05:22:28;;;;;;;29.10;17.25;;;;;;;18.79;100.00;94288.31;4998355;28;20041;-87
2023/04/30 05:24:53;;;;;;;38.55;18.45;;;;;;;18.90;100.00;94290.59;4998286;28;20038;-87
2023/04/30 05:27:19;;;;;;;29.85;16.58;;;;;;;19.18;100.00;94279.50;4997649;28;20035;-88
2023/04/30 05:29:45;;;;;;;34.85;17.60;;;;;;;18.78;100.00;94289.41;4998162;28;20103;-87
2023/04/30 05:32:10;;;;;;;26.65;15.98;;;;;;;19.50;98.98;94287.84;4999393;28;20124;-88
2023/04/30 05:34:36;;;;;;;29.00;16.02;;;;;;;19.06;97.57;94283.63;4998429;28;20034;-88
2023/04/30 05:37:02;;;;;;;26.42;15.40;;;;;;;19.59;94.96;94285.88;4998125;28;20463;-88
2023/04/30 05:39:27;;;;;;;27.05;15.13;;;;;;;19.83;95.85;94275.66;4998986;28;20432;-87
2023/04/30 05:41:53;;;;;;;28.17;14.50;;;;;;;19.69;92.91;94278.63;4998000;28;20165;-87
2023/04/30 05:44:18;;;;;;;24.52;14.05;;;;;;;19.76;90.03;94278.84;4997957;28;20034;-87
2023/04/30 05:46:44;;;;;;;27.90;15.27;;;;;;;19.96;92.28;94279.16;4999122;28;20375;-87
2023/04/30 05:49:10;;;;;;;25.52;14.45;;;;;;;19.97;91.34;94286.81;4997322;28;20026;-87
2023/04/30 05:51:35;;;;;;;22.17;13.02;;;;;;;20.25;88.55;94286.19;4997732;28;20038;-87
2023/04/30 05:54:01;;;;;;;21.45;12.82;;;;;;;20.46;87.16;94293.31;4998048;28;20467;-87
2023/04/30 05:56:26;;;;;;;25.02;12.93;;;;;;;20.11;89.72;94289.19;4998891;28;20027;-87
2023/04/30 05:58:51;;;;;;;19.90;11.30;;;;;;;20.73;86.26;94291.88;4998682;28;20039;-87
2023/04/30 06:01:19;;;;;;;20.63;11.75;;;;;;;21.18;83.92;94292.84;4998790;28;20031;-91
2023/04/30 06:03:45;;;;;;;22.42;11.85;;;;;;;20.56;85.13;94295.53;4997488;28;20125;-88
2023/04/30 06:06:11;;;;;;;24.15;12.80;;;;;;;20.22;90.02;94299.38;4997583;28;20113;-88
2023/04/30 06:08:36;;;;;;;25.45;14.45;;;;;;;20.02;91.61;94296.47;4997394;28;20347;-87
2023/04/30 06:11:03;;;;;;;22.50;12.77;;;;;;;20.62;84.95;94302.19;4998626;28;20092;-88
2023/04/30 06:13:30;;;;;;;23.13;11.85;;;;;;;21.14;84.60;94297.25;5011002;28;20443;-87
2023/04/30 06:15:56;;;;;;;23.05;12.45;;;;;;;21.19;81.70;94299.72;5000721;28;20386;-88
2023/04/30 06:18:24;;;;;;;27.65;12.63;;;;;;;21.64;79.96;94294.47;4997173;28;20050;-87
2023/04/30 06:20:49;;;;;;;22.58;11.73;;;;;;;21.75;76.14;94300.09;4981107;28;20317;-87
2023/04/30 06:23:15;;;;;;;21.83;11.60;;;;;;;21.60;74.89;94307.69;4998366;28;20045;-88
2023/04/30 06:25:40;;;;;;;22.55;10.70;;;;;;;21.68;76.69;94297.25;5013531;28;20321;-87
2023/04/30 06:28:08;;;;;;;20.40;10.68;;;;;;;21.50;75.92;94304.75;4997984;28;20041;-87
2023/04/30 06:30:33;;;;;;;17.55;10.05;;;;;;;21.90;73.79;94311.94;4997153;28;20080;-88
2023/04/30 06:32:59;;;;;;;19.42;10.30;;;;;;;21.72;72.64;94314.13;4981020;28;20034;-87
2023/04/30 06:35:24;;;;;;;16.45;9.68;;;;;;;21.98;71.09;94305.66;4995497;28;20132;-86
2023/04/30 06:37:50;;;;;;;13.55;9.23;;;;;;;21.89;71.15;94308.50;5016180;28;20029;-88
2023/04/30 06:40:15;;;;;;;16.42;9.82;;;;;;;22.00;69.09;94314.09;5016419;28;20092;-87
2023/04/30 06:42:40;;;;;;;22.77;10.75;;;;;;;20.67;76.80;94306.53;5000331;28;20432;-87
2023/04/30 06:45:07;;;;;;;18.35;9.55;;;;;;;21.40;77.23;94301.44;5016445;28;20084;-87
2023/04/30 06:47:37;;;;;;;13.82;7.75;;;;;;;22.23;71.60;94312.75;4999996;28;20034;-87
2023/04/30 06:50:03;;;;;;;12.13;7.03;;;;;;;22.39;67.92;94310.88;5000650;28;20032;-87
2023/04/30 06:52:29;;;;;;;13.85;7.13;;;;;;;22.28;68.01;94315.19;5016583;28;20026;-90
2023/04/30 06:54:55;;;;;;;14.85;7.70;;;;;;;22.26;67.34;94314.75;5016676;28;20064;-89
2023/04/30 06:57:21;;;;;;;14.18;6.95;;;;;;;22.66;69.34;94308.47;5016327;28;20120;-89
2023/04/30 06:59:47;;;;;;;12.95;7.43;;;;;;;23.00;66.87;94316.88;4999483;28;20388;-88
2023/04/30 07:02:12;;;;;;;13.63;7.80;;;;;;;22.59;69.41;94316.31;5016271;28;20104;-88
2023/04/30 07:04:37;;;;;;;13.77;7.75;;;;;;;22.32;67.24;94321.38;5014040;28;20033;-90
2023/04/30 07:07:03;;;;;;;13.40;7.55;;;;;;;22.94;64.71;94318.25;4999840;28;20482;-90
2023/04/30 07:09:29;;;;;;;15.60;8.18;;;;;;;23.18;62.49;94315.72;4996072;28;20038;-88
2023/04/30 07:11:54;;;;;;;17.98;9.30;;;;;;;22.90;65.45;94311.31;4980509;28;20030;-90
2023/04/30 07:14:20;;;;;;;14.70;7.13;;;;;;;23.71;62.86;94324.06;4996274;28;20030;-89
2023/04/30 07:16:46;;;;;;;11.95;7.28;;;;;;;22.55;63.51;94318.16;4996398;28;20102;-90
2023/04/30 07:19:12;;;;;;;13.32;7.07;;;;;;;22.44;66.45;94317.84;4979531;28;20355;-90
2023/04/30 07:21:37;;;;;;;13.15;6.82;;;;;;;23.22;60.33;94320.00;4980182;28;20040;-90
2023/04/30 07:24:03;;;;;;;10.70;5.57;;;;;;;23.54;61.37;94324.50;4996155;28;20101;-89
2023/04/30 07:26:28;;;;;;;10.30;6.10;;;;;;;23.10;62.67;94314.81;4980288;28;20336;-90
2023/04/30 07:28:54;;;;;;;9.77;5.70;;;;;;;23.34;60.38;94315.69;4995911;28;20038;-90
2023/04/30 07:31:19;;;;;;;11.05;6.32;;;;;;;22.46;65.41;94313.72;4996032;28;20034;-89
2023/04/30 07:33:45;;;;;;;43.53;11.02;;;;;;;22.64;63.24;94323.31;4996603;28;20034;-90
2023/04/30 07:36:10;;;;;;;16.80;7.40;;;;;;;22.47;63.22;94319.84;4980036;28;20112;-89
2023/04/30 07:38:36;;;;;;;17.00;6.53;;;;;;;21.66;66.73;94318.91;4996050;28;20030;-88
2023/04/30 07:41:01;;;;;;;15.75;6.88;;;;;;;21.96;65.52;94321.22;4996224;28;20077;-88
2023/04/30 07:43:28;;;;;;;11.15;6.72;;;;;;;22.96;63.55;94313.38;4996244;28;20436;-89
2023/04/30 07:45:53;;;;;;;18.95;8.00;;;;;;;23.57;59.92;94321.13;4997607;28;20396;-88
2023/04/30 07:48:19;;;;;;;11.90;7.75;;;;;;;22.54;62.34;94321.94;4979962;28;20116;-88
2023/04/30 07:50:48;;;;;;;13.70;7.95;;;;;;;22.91;61.89;94324.31;4996175;28;20088;-89
2023/04/30 07:53:13;;;;;;;28.33;8.15;;;;;;;23.05;62.26;94318.50;4996072;28;20108;-88
2023/04/30 07:55:39;;;;;;;14.73;6.05;;;;;;;23.06;59.53;94324.63;4996123;28;20034;-88
2023/04/30 07:58:04;;;;;;;12.90;6.07;;;;;;;22.29;59.69;94330.06;4997138;28;20034;-89
2023/04/30 08:00:30;;;;;;;21.58;7.18;;;;;;;22.68;60.34;94324.94;4995971;28;20436;-90
2023/04/30 08:02:56;;;;;;;13.88;6.43;;;;;;;22.74;61.03;94334.22;4979412;28;20462;-88
2023/04/30 08:05:22;;;;;;;12.15;6.57;;;;;;;21.11;65.85;94323.81;4997163;28;20030;-89
2023/04/30 08:07:47;;;;;;;13.57;7.15;;;;;;;21.35;66.16;94328.31;4979928;28;20042;-88
2023/04/30 08:10:12;;;;;;;45.92;12.20;;;;;;;21.28;69.32;94323.56;4996231;28;20030;-89
2023/04/30 08:12:38;;;;;;;73.55;18.67;;;;;;;21.67;66.10;94327.72;5000885;28;20084;-88
2023/04/30 08:15:05;;;;;;;37.28;12.32;;;;;;;21.60;66.59;94336.25;4999797;28;20348;-88
2023/04/30 08:17:31;;;;;;;79.38;18.27;;;;;;;21.96;66.99;94336.47;4983157;28;20050;-87
2023/04/30 08:19:57;;;;;;;40.55;11.93;;;;;;;21.49;69.17;94327.94;4983243;28;20038;-89
2023/04/30 08:22:23;;;;;;;20.33;9.05;;;;;;;20.11;80.80;94333.59;4983497;28;20053;-88
2023/04/30 08:24:48;;;;;;;21.83;9.75;;;;;;;21.64;73.75;94328.34;4998903;28;20030;-88
2023/04/30 08:27:15;;;;;;;14.35;8.55;;;;;;;22.27;68.59;94354.41;4999516;28;20036;-89
2023/04/30 08:29:40;;;;;;;17.83;9.23;;;;;;;21.88;68.11;94340.84;4983207;28;20026;-88
2023/04/30 08:32:06;;;;;;;23.48;11.27;;;;;;;21.15;73.30;94336.13;4999379;28;20040;-89
2023/04/30 08:34:31;;;;;;;17.08;9.23;;;;;;;22.71;68.22;94342.94;4999327;28;20042;-88
2023/04/30 08:36:57;;;;;;;19.95;10.13;;;;;;;22.77;67.19;94343.47;4983304;28;20031;-89
2023/04/30 08:39:23;;;;;;;28.35;10.63;;;;;;;22.63;67.41;94343.88;4998975;28;20121;-88
2023/04/30 08:41:56;;;;;;;19.40;9.13;;;;;;;22.80;63.83;94348.09;4983153;28;20037;-88
2023/04/30 08:44:22;;;;;;;15.23;9.18;;;;;;;21.95;68.86;94353.56;4998846;28;20030;-87
2023/04/30 08:46:53;;;;;;;16.27;8.90;;;;;;;22.33;66.44;94346.94;4999102;28;20030;-88
2023/04/30 08:49:18;;;;;;;19.90;9.50;;;;;;;22.44;65.56;94350.66;4998955;28;20036;-88
2023/04/30 08:51:45;;;;;;;23.05;10.25;;;;;;;22.76;62.68;94349.13;5000075;28;20034;-88
2023/04/30 08:54:12;;;;;;;16.35;8.77;;;;;;;22.13;63.17;94349.50;4998728;28;20035;-88
2023/04/30 08:56:38;;;;;;;22.08;10.32;;;;;;;22.24;63.13;94341.00;4999090;28;20448;-88
2023/04/30 08:59:03;;;;;;;24.88;10.75;;;;;;;22.05;64.79;94349.66;4982619;28;20065;-89
2023/04/30 09:01:29;;;;;;;18.02;9.07;;;;;;;22.42;62.98;94350.22;4982798;28;20060;-88
2023/04/30 09:03:54;;;;;;;23.30;9.25;;;;;;;22.94;62.83;94349.56;4982207;28;20038;-88
2023/04/30 09:06:20;;;;;;;49.03;14.50;;;;;;;21.88;66.05;94343.50;4998678;28;20388;-88
2023/04/30 09:08:47;;;;;;;46.40;13.93;;;;;;;21.61;64.81;94349.22;4998772;28;20034;-88
2023/04/30 09:11:23;;;;;;;32.03;11.73;;;;;;;21.94;66.08;94349.34;4998273;28;20125;-88
2023/04/30 09:13:51;;;;;;;20.70;9.20;;;;;;;21.73;69.11;94345.00;4982550;28;20124;-88
2023/04/30 09:16:17;;;;;;;19.70;10.05;;;;;;;21.50;69.81;94350.81;4998245;28;20432;-89
2023/04/30 09:18:42;;;;;;;18.08;10.32;;;;;;;22.34;68.89;94347.72;4982188;28;20038;-87
2023/04/30 09:21:08;;;;;;;21.77;9.90;;;;;;;22.36;64.36;94350.81;4999653;28;20116;-88
2023/04/30 09:23:33;;;;;;;23.60;11.15;;;;;;;23.19;64.02;94347.44;4997589;28;20181;-89
2023/04/30 09:25:59;;;;;;;27.75;11.05;;;;;;;23.85;61.17;94352.22;4998345;28;20034;-88
2023/04/30 09:28:27;;;;;;;27.25;12.50;;;;;;;22.29;66.54;94349.50;4998168;28;20038;-90
2023/04/30 09:30:55;;;;;;;22.05;11.05;;;;;;;22.67;61.67;94347.44;4998053;28;20033;-87
2023/04/30 09:33:21;;;;;;;19.00;10.25;;;;;;;22.41;65.66;94348.69;4982237;28;20034;-88
2023/04/30 09:35:46;;;;;;;17.42;10.18;;;;;;;21.90;66.15;94354.63;4999370;28;20412;-88
2023/04/30 09:38:31;;;;;;;21.85;10.55;;;;;;;22.03;67.13;94353.44;4997702;28;20057;-88
2023/04/30 09:40:59;;;;;;;22.63;10.77;;;;;;;22.08;65.82;94352.41;4998027;28;20034;-87
2023/04/30 09:43:24;;;;;;;31.00;11.77;;;;;;;21.57;68.76;94344.91;4998035;28;20037;-88
2023/04/30 09:45:51;;;;;;;23.30;10.02;;;;;;;22.20;67.97;94353.47;4981938;28;20034;-88
2023/04/30 09:48:21;;;;;;;18.92;9.25;;;;;;;22.26;69.76;94360.13;4997768;28;20034;-88
2023/04/30 09:50:48;;;;;;;22.17;10.38;;;;;;;21.93;69.66;94350.47;4997901;28;20030;-88
2023/04/30 09:53:16;;;;;;;114.35;25.67;;;;;;;22.67;65.21;94350.09;4997822;28;20030;-88
2023/04/30 09:55:46;;;;;;;22.58;10.75;;;;;;;22.96;63.41;94355.31;4982136;28;20048;-87
2023/04/30 09:58:12;;;;;;;22.35;11.02;;;;;;;22.41;65.37;94355.91;4997688;28;20343;-88
2023/04/30 10:00:38;;;;;;;22.42;11.52;;;;;;;21.65;70.67;94340.53;4997651;28;20081;-88
2023/04/30 10:03:14;;;;;;;25.08;11.15;;;;;;;22.87;63.40;94352.84;4997591;28;20140;-88
2023/04/30 10:05:46;;;;;;;19.60;10.68;;;;;;;22.57;64.63;94353.28;4997580;28;20121;-88
2023/04/30 10:08:27;;;;;;;22.30;11.27;;;;;;;23.07;64.47;94351.00;4981872;28;20037;-88
2023/04/30 10:10:58;;;;;;;20.75;10.40;;;;;;;22.61;67.91;94345.38;4997255;28;20049;-88
2023/04/30 10:13:25;;;;;;;20.20;10.73;;;;;;;23.16;65.80;94340.13;4997553;28;20068;-89
2023/04/30 10:15:53;;;;;;;18.85;9.60;;;;;;;23.12;65.09;94350.72;4997379;28;20026;-89
2023/04/30 10:18:31;;;;;;;19.40;9.32;;;;;;;22.58;66.10;94342.25;4997159;28;20125;-88
2023/04/30 10:20:58;;;;;;;20.27;9.23;;;;;;;22.95;64.89;94341.19;4981194;28;20038;-88
2023/04/30 10:23:24;;;;;;;16.27;9.63;;;;;;;23.09;65.93;94337.28;4981311;28;20053;-88
2023/04/30 10:25:50;;;;;;;18.98;9.35;;;;;;;22.26;66.09;94331.53;4981204;28;20065;-89
2023/04/30 10:28:15;;;;;;;17.13;8.73;;;;;;;21.64;68.61;94328.34;4980978;28;20458;-88
2023/04/30 10:30:42;;;;;;;19.95;8.63;;;;;;;21.33;70.64;94336.63;4997100;28;20023;-90
2023/04/30 10:33:14;;;;;;;14.75;8.48;;;;;;;21.74;72.24;94334.00;4980850;28;20030;-88
2023/04/30 10:36:01;;;;;;;19.60;7.80;;;;;;;22.46;66.55;94332.41;4997962;28;20048;-89
2023/04/30 10:38:29;;;;;;;19.83;7.97;;;;;;;21.59;67.66;94324.81;4996984;28;20049;-88
2023/04/30 10:40:58;;;;;;;12.70;7.60;;;;;;;21.74;68.20;94323.34;4996907;28;20026;-90
2023/04/30 10:43:25;;;;;;;17.95;8.75;;;;;;;21.39;70.93;94329.19;4996658;28;20117;-89
2023/04/30 10:45:50;;;;;;;13.18;7.10;;;;;;;21.70;66.83;94321.69;4996648;28;20022;-89
2023/04/30 10:48:23;;;;;;;15.45;6.32;;;;;;;21.66;68.33;94321.59;4984855;28;20026;-89
2023/04/30 10:50:58;;;;;;;12.30;7.25;;;;;;;21.61;68.44;94324.47;4996862;28;20344;-91
2023/04/30 10:53:26;;;;;;;13.70;6.80;;;;;;;21.28;68.58;94330.75;4996656;28;20379;-90
2023/04/30 10:55:59;;;;;;;14.27;6.88;;;;;;;21.78;66.66;94333.31;4996531;28;20042;-89
2023/04/30 10:58:35;;;;;;;16.08;6.55;;;;;;;21.68;64.94;94331.94;4996593;28;20061;-89
2023/04/30 11:01:12;;;;;;;11.07;6.10;;;;;;;21.67;65.34;94333.03;4980598;28;20027;-88
2023/04/30 11:03:41;;;;;;;15.00;5.82;;;;;;;22.02;63.03;94332.44;4996583;28;20022;-87
2023/04/30 11:06:20;;;;;;;12.27;6.78;;;;;;;21.55;63.19;94326.59;4996530;28;20033;-90
2023/04/30 11:08:46;;;;;;;12.48;6.22;;;;;;;20.99;64.62;94333.38;4996341;28;20037;-90
2023/04/30 11:11:17;;;;;;;10.50;6.10;;;;;;;21.43;62.48;94329.31;4996268;28;20491;-88
2023/04/30 11:13:47;;;;;;;10.35;5.53;;;;;;;21.79;62.07;94327.63;4996695;28;20050;-89
2023/04/30 11:16:15;;;;;;;9.88;6.13;;;;;;;20.88;66.08;94317.06;4980134;28;20033;-89